Amaranth, Pennsylvania
Current Conditions -  °F | °C
As of 4:53 AM on Sunday 26 Oct 2014 (Local Time) from KHGR Reporting Station
Clear Clear  
Wind Chill: 55°   Ceiling: Unl
Heat Index: 55°   Visibility: 10mi
Dew Point: 34°   Wind: 13mph
Humidity: 45%   Direction: 310°NW
Pressure: 29.73"   Gusts: NA
Location:  39.7745°N, 78.2026°W
Report Text: KHGR 260853Z AUTO 31011KT 10SM CLR 13/01 A2973 RMK AO2 PK WND 31027/0827 SLP074 T01280011 51018
Loading
Personal Weather Stations






























Interactive Weather Map
Tropical Storm Tracking
New forecast layout! Learn more

10-Day Weather Forecast

Advertisements
Track Severe Weather on mobile